Terminal Aerodrome Forecast
Issued by NWS

Home | Current Version | Previous Version | Text Only | Print | Product List | Glossary On
Versions: 1 2 3 4 5 6 7 8 9 10 11 12 13 14 15 16 17 18 19 20 21 22 23 24 25 26 27 28 29 30 31 32 33 34 35 36
851
FTUS43 KGLD 130526
TAFMCK
TAF
KMCK 130526Z 1306/1406 11012KT 1/4SM FG VV002
     FM130900 13012G17KT 1SM -FZDZ BR OVC003
     FM131500 14014G21KT 2SM BR OVC006
     FM131800 15015G23KT P6SM OVC008
     FM140400 21004KT P6SM SKC=

USA.gov is the U.S. government's official web portal to all federal, state and local government web resources and services.